createdAt,value
2019-02-09T00:01:10.928Z,47.78
2019-02-09T00:03:40.469Z,47.61
2019-02-09T00:06:10.134Z,47.73
2019-02-09T00:08:39.718Z,47.92
2019-02-09T00:11:09.579Z,48.16
2019-02-09T00:13:39.182Z,47.80
2019-02-09T00:16:08.745Z,47.53
2019-02-09T00:18:38.337Z,47.82
2019-02-09T00:21:08.371Z,48.30
2019-02-09T00:23:38.254Z,48.26
2019-02-09T00:26:07.895Z,47.75
2019-02-09T00:28:37.549Z,47.51
2019-02-09T00:31:07.219Z,48.37
2019-02-09T00:33:36.803Z,47.98
2019-02-09T00:36:06.430Z,47.44
2019-02-09T00:38:36.030Z,47.24
2019-02-09T00:41:05.720Z,47.21
2019-02-09T00:43:35.309Z,47.37
2019-02-09T00:46:05.212Z,47.72
2019-02-09T00:48:34.804Z,47.67
2019-02-09T00:51:04.521Z,47.29
2019-02-09T00:53:34.137Z,47.40
2019-02-09T00:56:03.802Z,47.34
2019-02-09T00:58:33.410Z,47.91
2019-02-09T01:01:03.100Z,47.47
2019-02-09T01:03:32.694Z,47.61
2019-02-09T01:06:02.374Z,48.36
2019-02-09T01:08:33.040Z,47.64
2019-02-09T01:11:03.039Z,47.91
2019-02-09T01:13:32.725Z,48.04
2019-02-09T01:16:02.393Z,47.84
2019-02-09T01:18:32.016Z,47.16
2019-02-09T01:21:01.621Z,47.57
2019-02-09T01:23:31.215Z,47.46
2019-02-09T01:26:00.724Z,46.70
2019-02-09T01:28:30.374Z,46.96
2019-02-09T01:30:59.987Z,47.39
2019-02-09T01:33:29.515Z,47.53
2019-02-09T01:35:59.143Z,47.76
2019-02-09T01:38:28.745Z,47.40
2019-02-09T01:40:59.502Z,47.10
2019-02-09T01:43:29.143Z,47.14
2019-02-09T01:45:58.750Z,46.82
2019-02-09T01:48:28.361Z,47.11
2019-02-09T01:50:58.065Z,47.93
2019-02-09T01:53:27.672Z,47.57
2019-02-09T01:55:57.320Z,47.67
2019-02-09T01:58:26.899Z,47.33
2019-02-09T02:00:56.516Z,47.31
2019-02-09T02:03:26.140Z,47.98
2019-02-09T02:05:55.733Z,47.59
2019-02-09T02:08:25.356Z,47.33
2019-02-09T02:10:55.042Z,50.17
2019-02-09T02:13:24.573Z,49.72
2019-02-09T02:15:54.172Z,48.74
2019-02-09T02:18:23.817Z,48.69
2019-02-09T02:20:53.458Z,48.87
2019-02-09T02:23:23.043Z,48.56
2019-02-09T02:25:52.659Z,48.75
2019-02-09T02:28:22.176Z,48.94
2019-02-09T02:30:51.793Z,48.41
2019-02-09T02:33:21.473Z,49.32
2019-02-09T02:35:51.221Z,48.96
2019-02-09T02:38:20.944Z,48.28
2019-02-09T02:40:50.613Z,48.70
2019-02-09T02:43:20.212Z,48.90
2019-02-09T02:45:49.805Z,49.75
2019-02-09T02:48:19.330Z,51.63
2019-02-09T02:50:48.957Z,48.61
2019-02-09T02:53:18.483Z,48.13
2019-02-09T02:55:48.124Z,47.31
2019-02-09T02:58:17.668Z,47.72
2019-02-09T03:00:47.260Z,47.60
2019-02-09T03:03:16.855Z,48.01
2019-02-09T03:05:46.444Z,48.70
2019-02-09T03:08:16.011Z,49.36
2019-02-09T03:10:45.598Z,49.70
2019-02-09T03:13:15.208Z,49.74
2019-02-09T03:15:44.773Z,48.86
2019-02-09T03:18:14.362Z,48.40
2019-02-09T03:20:43.979Z,49.38
2019-02-09T03:23:13.576Z,48.79
2019-02-09T03:25:43.143Z,47.95
2019-02-09T03:28:12.752Z,48.57
2019-02-09T03:30:48.006Z,48.93
2019-02-09T03:33:13.888Z,49.40
2019-02-09T03:35:43.584Z,48.93
2019-02-09T03:38:13.358Z,48.21
2019-02-09T03:40:42.908Z,48.10
2019-02-09T03:43:12.512Z,47.97
2019-02-09T03:45:42.208Z,48.20
2019-02-09T03:48:11.824Z,49.20
2019-02-09T03:50:41.443Z,48.72
2019-02-09T03:53:11.051Z,50.74
2019-02-09T03:55:40.628Z,49.47
2019-02-09T03:58:10.299Z,50.65
2019-02-09T04:00:39.905Z,49.75
2019-02-09T04:03:09.550Z,51.51
2019-02-09T04:05:39.196Z,49.95
2019-02-09T04:08:08.767Z,50.57
2019-02-09T04:10:38.522Z,49.28
2019-02-09T04:13:08.217Z,50.37
2019-02-09T04:15:37.808Z,50.79
2019-02-09T04:18:07.415Z,50.41
2019-02-09T04:20:37.029Z,50.83
2019-02-09T04:23:06.712Z,50.01
2019-02-09T04:25:36.393Z,49.82
2019-02-09T04:28:06.073Z,50.67
2019-02-09T04:30:35.601Z,50.14
2019-02-09T04:33:05.215Z,50.53
2019-02-09T04:35:34.732Z,51.93
2019-02-09T04:38:04.417Z,51.17
2019-02-09T04:40:34.010Z,50.80
2019-02-09T04:43:03.624Z,52.96
2019-02-09T04:45:33.258Z,50.75
2019-02-09T04:48:02.931Z,51.40
2019-02-09T04:50:32.575Z,51.09
2019-02-09T04:53:02.199Z,51.17
2019-02-09T04:55:31.825Z,51.61
2019-02-09T04:58:01.494Z,52.17
2019-02-09T05:00:31.427Z,51.19
2019-02-09T05:03:01.211Z,50.06
2019-02-09T05:05:31.151Z,50.05
2019-02-09T05:08:00.802Z,50.25
2019-02-09T05:10:30.397Z,50.26
2019-02-09T05:13:00.018Z,50.46
2019-02-09T05:15:29.632Z,50.33
2019-02-09T05:17:59.370Z,51.02
2019-02-09T05:20:29.049Z,50.37
2019-02-09T05:22:58.605Z,52.37
2019-02-09T05:25:28.146Z,51.81
2019-02-09T05:27:57.687Z,51.06
2019-02-09T05:30:28.430Z,50.82
2019-02-09T05:33:00.349Z,50.65
2019-02-09T05:35:29.462Z,50.97
2019-02-09T05:37:59.121Z,50.56
2019-02-09T05:40:29.088Z,51.04
2019-02-09T05:42:58.802Z,50.71
2019-02-09T05:45:29.069Z,50.76
2019-02-09T05:47:58.698Z,50.85
2019-02-09T05:50:28.301Z,51.42
2019-02-09T05:52:57.953Z,51.49
2019-02-09T05:55:27.529Z,51.70
2019-02-09T05:57:57.133Z,51.67
2019-02-09T06:00:31.144Z,51.40
2019-02-09T06:03:00.701Z,51.76
2019-02-09T06:05:30.308Z,51.73
2019-02-09T06:07:59.884Z,51.96
2019-02-09T06:10:29.476Z,52.34
2019-02-09T06:12:59.361Z,51.66
2019-02-09T06:15:29.147Z,52.16
2019-02-09T06:17:58.735Z,52.47
2019-02-09T06:20:28.467Z,52.50
2019-02-09T06:22:58.273Z,52.84
2019-02-09T06:25:27.953Z,53.28
2019-02-09T06:27:57.506Z,53.78
2019-02-09T06:30:28.450Z,53.55
2019-02-09T06:32:58.156Z,53.58
2019-02-09T06:35:27.953Z,54.50
2019-02-09T06:37:57.630Z,53.86
2019-02-09T06:40:27.248Z,54.06
2019-02-09T06:42:57.110Z,53.92
2019-02-09T06:45:26.729Z,53.76
2019-02-09T06:48:17.864Z,53.49
2019-02-09T06:50:47.494Z,53.19
2019-02-09T06:53:17.169Z,52.79
2019-02-09T06:55:46.798Z,52.80
2019-02-09T06:58:16.289Z,52.80
2019-02-09T07:00:45.788Z,52.69
2019-02-09T07:03:15.390Z,52.56
2019-02-09T07:05:45.020Z,52.83
2019-02-09T07:08:14.637Z,52.49
2019-02-09T07:10:44.235Z,52.85
2019-02-09T07:13:13.751Z,53.13
2019-02-09T07:15:43.346Z,53.42
2019-02-09T07:18:12.867Z,54.58
2019-02-09T07:20:42.558Z,54.31
2019-02-09T07:23:12.084Z,54.28
2019-02-09T07:25:41.726Z,53.57
2019-02-09T07:28:11.400Z,53.26
2019-02-09T07:30:41.063Z,53.29
2019-02-09T07:33:10.757Z,52.72
2019-02-09T07:35:40.393Z,53.25
2019-02-09T07:38:09.970Z,55.22
2019-02-09T07:40:39.503Z,52.63
2019-02-09T07:43:09.103Z,52.16
2019-02-09T07:45:38.677Z,52.38
2019-02-09T07:48:08.275Z,52.47
2019-02-09T07:50:37.880Z,52.57
2019-02-09T07:53:07.522Z,52.66
2019-02-09T07:55:37.288Z,52.53
2019-02-09T07:58:07.558Z,52.60
2019-02-09T08:00:37.320Z,52.77
2019-02-09T08:03:07.005Z,53.63
2019-02-09T08:05:36.602Z,53.54
2019-02-09T08:08:07.057Z,53.78
2019-02-09T08:10:36.707Z,54.20
2019-02-09T08:13:06.710Z,54.57
2019-02-09T08:15:36.379Z,54.81
2019-02-09T08:18:06.214Z,55.94
2019-02-09T08:20:35.815Z,57.51
2019-02-09T08:23:05.923Z,58.40
2019-02-09T08:25:36.452Z,58.54
2019-02-09T08:28:07.402Z,58.96
2019-02-09T08:30:41.707Z,59.73
2019-02-09T08:33:11.299Z,59.37
2019-02-09T08:35:40.992Z,60.87
2019-02-09T08:38:13.476Z,60.20
2019-02-09T08:40:43.076Z,61.59
2019-02-09T08:43:12.672Z,61.77
2019-02-09T08:45:42.350Z,61.62
2019-02-09T08:48:12.049Z,60.83
2019-02-09T08:50:44.931Z,60.53
2019-02-09T08:53:14.652Z,60.19
2019-02-09T08:55:44.259Z,59.42
2019-02-09T08:58:13.879Z,58.69
2019-02-09T09:00:43.389Z,58.56
2019-02-09T09:03:13.027Z,58.02
2019-02-09T09:05:42.626Z,58.86
2019-02-09T09:08:12.221Z,57.04
2019-02-09T09:10:41.737Z,54.78
2019-02-09T09:13:11.286Z,58.00
2019-02-09T09:15:46.126Z,58.68
2019-02-09T09:18:15.686Z,58.13
2019-02-09T09:20:48.247Z,56.74
2019-02-09T09:23:17.901Z,58.37
2019-02-09T09:25:47.511Z,59.00
2019-02-09T09:28:17.177Z,60.45
2019-02-09T09:30:46.773Z,59.72
2019-02-09T09:33:16.459Z,59.15
2019-02-09T09:36:03.498Z,60.81
2019-02-09T09:38:34.814Z,61.61
2019-02-09T09:41:04.559Z,63.32
2019-02-09T09:43:34.264Z,63.01
2019-02-09T09:46:04.219Z,62.32
2019-02-09T09:48:33.960Z,61.67
2019-02-09T09:51:03.675Z,59.72
2019-02-09T09:53:33.296Z,60.45
2019-02-09T09:56:02.922Z,60.27
2019-02-09T09:58:32.720Z,60.42
2019-02-09T10:01:02.404Z,61.71
2019-02-09T10:03:31.960Z,60.73
2019-02-09T10:06:01.429Z,59.24
2019-02-09T10:08:31.157Z,57.81
2019-02-09T10:11:00.730Z,58.74
2019-02-09T10:13:30.212Z,61.65
2019-02-09T10:15:59.738Z,59.30
2019-02-09T10:18:29.256Z,58.25
2019-02-09T10:20:58.850Z,57.00
2019-02-09T10:23:28.366Z,54.59
2019-02-09T10:25:57.874Z,55.37
2019-02-09T10:28:27.503Z,54.61
2019-02-09T10:30:57.154Z,53.65
2019-02-09T10:33:26.733Z,54.67
2019-02-09T10:35:56.424Z,58.75
2019-02-09T10:38:25.926Z,58.60
2019-02-09T10:40:55.531Z,59.09
2019-02-09T10:43:25.101Z,54.97
2019-02-09T10:45:54.684Z,48.69
2019-02-09T10:48:24.243Z,49.43
2019-02-09T10:50:53.930Z,48.92
2019-02-09T10:53:23.469Z,48.93
2019-02-09T10:55:52.997Z,48.87
2019-02-09T10:58:22.625Z,46.13
2019-02-09T11:00:58.733Z,45.24
2019-02-09T11:03:28.310Z,47.45
2019-02-09T11:05:57.843Z,45.04
2019-02-09T11:08:27.421Z,43.61
2019-02-09T11:10:57.021Z,44.23
2019-02-09T11:13:26.612Z,42.85
2019-02-09T11:15:56.217Z,44.74
2019-02-09T11:18:25.799Z,44.84
2019-02-09T11:20:55.420Z,44.23
2019-02-09T11:23:24.993Z,44.83
2019-02-09T11:25:54.601Z,46.01
2019-02-09T11:28:24.284Z,47.11
2019-02-09T11:30:53.870Z,48.89
2019-02-09T11:33:23.387Z,47.06
2019-02-09T11:35:52.992Z,45.79
2019-02-09T11:38:22.671Z,41.87
2019-02-09T11:40:52.357Z,44.17
2019-02-09T11:43:21.893Z,43.69
2019-02-09T11:45:51.402Z,44.84
2019-02-09T11:48:20.915Z,45.40
2019-02-09T11:50:50.429Z,44.17
2019-02-09T11:53:20.196Z,45.16
2019-02-09T11:55:49.785Z,44.16
2019-02-09T11:58:19.478Z,45.19
2019-02-09T12:00:51.429Z,42.71
2019-02-09T12:03:21.289Z,43.22
2019-02-09T12:05:50.842Z,44.70
2019-02-09T12:08:20.482Z,42.10
2019-02-09T12:10:50.114Z,43.87
2019-02-09T12:13:19.734Z,42.68
2019-02-09T12:15:49.345Z,43.26
2019-02-09T12:18:18.983Z,41.44
2019-02-09T12:20:48.620Z,41.86
2019-02-09T12:23:18.184Z,43.72
2019-02-09T12:25:47.802Z,44.16
2019-02-09T12:28:17.774Z,43.88
2019-02-09T12:30:47.701Z,43.03
2019-02-09T12:33:23.139Z,43.07
2019-02-09T12:35:48.587Z,44.03
2019-02-09T12:38:18.203Z,45.17
2019-02-09T12:40:47.896Z,45.27
2019-02-09T12:43:17.633Z,44.43
2019-02-09T12:45:47.309Z,45.07
2019-02-09T12:48:16.869Z,44.97
2019-02-09T12:50:46.407Z,43.97
2019-02-09T12:53:16.246Z,44.38
2019-02-09T12:55:45.844Z,44.72
2019-02-09T12:58:15.484Z,45.30
2019-02-09T13:00:45.060Z,44.92
2019-02-09T13:03:30.678Z,45.77
2019-02-09T13:05:54.130Z,45.69
2019-02-09T13:08:23.784Z,45.69
2019-02-09T13:10:53.400Z,44.93
2019-02-09T13:13:23.057Z,45.10
2019-02-09T13:15:52.750Z,44.51
2019-02-09T13:18:22.379Z,45.82
2019-02-09T13:20:51.969Z,44.45
2019-02-09T13:23:21.543Z,44.96
2019-02-09T13:25:51.071Z,45.24
2019-02-09T13:28:20.669Z,45.33
2019-02-09T13:30:50.285Z,45.33
2019-02-09T13:33:19.974Z,45.51
2019-02-09T13:35:49.483Z,46.17
2019-02-09T13:38:19.272Z,44.77
2019-02-09T13:40:48.857Z,44.84
2019-02-09T13:43:18.401Z,44.59
2019-02-09T13:45:50.314Z,43.67
2019-02-09T13:48:19.932Z,42.99
2019-02-09T13:50:49.535Z,43.86
2019-02-09T13:53:19.216Z,45.80
2019-02-09T13:55:48.794Z,46.34
2019-02-09T13:58:18.404Z,46.14
2019-02-09T14:00:48.061Z,46.42
2019-02-09T14:03:17.638Z,46.66
2019-02-09T14:05:47.243Z,46.85
2019-02-09T14:08:16.762Z,45.84
2019-02-09T14:10:46.352Z,45.31
2019-02-09T14:13:16.030Z,46.14
2019-02-09T14:15:45.616Z,46.42
2019-02-09T14:18:15.164Z,46.90
2019-02-09T14:20:44.764Z,46.50
2019-02-09T14:23:14.379Z,46.90
2019-02-09T14:25:44.033Z,46.72
2019-02-09T14:28:13.718Z,47.23
2019-02-09T14:30:43.655Z,46.80
2019-02-09T14:33:13.344Z,45.71
2019-02-09T14:35:43.066Z,44.48
2019-02-09T14:38:12.640Z,45.59
2019-02-09T14:40:42.219Z,44.74
2019-02-09T14:43:12.033Z,44.97
2019-02-09T14:45:43.234Z,43.86
2019-02-09T14:48:13.347Z,45.07
2019-02-09T14:50:43.044Z,44.83
2019-02-09T14:53:13.310Z,44.66
2019-02-09T14:55:42.914Z,44.35
2019-02-09T14:58:14.229Z,44.18
2019-02-09T15:00:51.755Z,45.18
2019-02-09T15:03:26.948Z,43.79
2019-02-09T15:05:52.837Z,44.58
2019-02-09T15:08:22.734Z,44.45
2019-02-09T15:10:52.584Z,44.10
2019-02-09T15:13:22.290Z,44.48
2019-02-09T15:16:16.528Z,44.66
2019-02-09T15:18:46.119Z,44.43
2019-02-09T15:21:15.744Z,44.98
2019-02-09T15:23:45.310Z,44.69
2019-02-09T15:26:14.899Z,44.71
2019-02-09T15:28:44.648Z,46.26
2019-02-09T15:31:14.286Z,44.96
2019-02-09T15:33:43.999Z,45.61
2019-02-09T15:36:13.675Z,45.74
2019-02-09T15:38:43.269Z,45.72
2019-02-09T15:41:12.954Z,45.62
2019-02-09T15:43:42.532Z,45.62
2019-02-09T15:46:12.090Z,45.90
2019-02-09T15:48:41.705Z,45.83
2019-02-09T15:51:11.281Z,45.83
2019-02-09T15:53:40.799Z,46.01
2019-02-09T15:56:10.471Z,47.08
2019-02-09T15:58:40.047Z,46.19
2019-02-09T16:01:09.595Z,46.73
2019-02-09T16:03:39.246Z,46.71
2019-02-09T16:06:08.871Z,47.09
2019-02-09T16:08:38.457Z,46.81
2019-02-09T16:11:08.114Z,47.01
2019-02-09T16:13:37.668Z,47.13
2019-02-09T16:16:08.309Z,47.06
2019-02-09T16:18:37.824Z,46.90
2019-02-09T16:21:07.355Z,46.82
2019-02-09T16:23:36.960Z,46.95
2019-02-09T16:26:06.632Z,47.03
2019-02-09T16:28:36.198Z,46.89
2019-02-09T16:31:05.859Z,46.93
2019-02-09T16:33:35.472Z,46.97
2019-02-09T16:36:05.315Z,47.03
2019-02-09T16:38:34.928Z,47.09
2019-02-09T16:41:04.505Z,47.21
2019-02-09T16:43:34.026Z,50.50
2019-02-09T16:46:03.670Z,47.58
2019-02-09T16:48:33.244Z,47.42
2019-02-09T16:51:02.871Z,47.39
2019-02-09T16:53:32.409Z,47.30
2019-02-09T16:56:02.033Z,47.41
2019-02-09T16:58:31.681Z,47.39
2019-02-09T17:01:01.301Z,47.38
2019-02-09T17:03:30.866Z,47.50
2019-02-09T17:06:15.248Z,47.80
2019-02-09T17:08:44.924Z,47.80
2019-02-09T17:11:14.432Z,47.85
2019-02-09T17:13:43.930Z,48.11
2019-02-09T17:16:13.682Z,48.19
2019-02-09T17:18:43.241Z,48.14
2019-02-09T17:21:12.779Z,48.18
2019-02-09T17:23:42.384Z,48.89
2019-02-09T17:26:11.915Z,48.56
2019-02-09T17:28:41.506Z,49.35
2019-02-09T17:31:11.011Z,49.51
2019-02-09T17:33:40.576Z,49.40
2019-02-09T17:36:10.254Z,49.79
2019-02-09T17:38:39.811Z,50.11
2019-02-09T17:41:09.337Z,50.42
2019-02-09T17:43:38.980Z,50.96
2019-02-09T17:46:14.411Z,51.45
2019-02-09T17:48:44.025Z,51.70
2019-02-09T17:51:13.656Z,52.37
2019-02-09T17:53:43.194Z,53.10
2019-02-09T17:56:12.787Z,52.93
2019-02-09T17:58:42.372Z,52.72
2019-02-09T18:01:13.412Z,52.72
2019-02-09T18:03:43.020Z,52.82
2019-02-09T18:06:12.708Z,52.92
2019-02-09T18:08:42.487Z,54.37
2019-02-09T18:11:12.127Z,53.37
2019-02-09T18:13:41.808Z,53.86
2019-02-09T18:16:11.386Z,54.02
2019-02-09T18:18:41.023Z,55.54
2019-02-09T18:21:10.687Z,55.46
2019-02-09T18:23:40.270Z,54.75
2019-02-09T18:26:10.013Z,54.79
2019-02-09T18:28:39.511Z,54.67
2019-02-09T18:31:09.130Z,55.86
2019-02-09T18:33:38.721Z,55.28
2019-02-09T18:36:08.315Z,55.59
2019-02-09T18:38:37.842Z,55.15
2019-02-09T18:41:07.610Z,55.22
2019-02-09T18:43:37.139Z,55.03
2019-02-09T18:46:06.745Z,54.82
2019-02-09T18:48:36.510Z,56.00
2019-02-09T18:51:06.273Z,55.55
2019-02-09T18:53:35.873Z,57.06
2019-02-09T18:56:05.732Z,55.78
2019-02-09T18:58:35.239Z,56.00
2019-02-09T19:01:05.114Z,55.34
2019-02-09T19:03:34.718Z,54.88
2019-02-09T19:06:04.394Z,55.00
2019-02-09T19:08:33.963Z,55.75
2019-02-09T19:11:03.539Z,55.52
2019-02-09T19:13:33.115Z,55.06
2019-02-09T19:16:02.840Z,54.74
2019-02-09T19:18:32.493Z,54.82
2019-02-09T19:21:03.240Z,55.63
2019-02-09T19:23:32.863Z,55.60
2019-02-09T19:26:02.464Z,55.47
2019-02-09T19:28:32.062Z,55.76
2019-02-09T19:31:01.685Z,55.45
2019-02-09T19:33:31.300Z,54.62
2019-02-09T19:36:00.866Z,55.18
2019-02-09T19:38:30.444Z,54.85
2019-02-09T19:41:00.037Z,54.45
2019-02-09T19:43:29.668Z,54.33
2019-02-09T19:45:59.373Z,54.16
2019-02-09T19:48:28.977Z,54.01
2019-02-09T19:50:58.511Z,54.13
2019-02-09T19:53:28.027Z,54.05
2019-02-09T19:55:57.618Z,54.50
2019-02-09T19:58:27.228Z,54.66
2019-02-09T20:00:56.812Z,54.41
2019-02-09T20:03:26.419Z,55.08
2019-02-09T20:05:55.990Z,54.78
2019-02-09T20:08:25.528Z,55.01
2019-02-09T20:10:55.091Z,55.63
2019-02-09T20:13:24.588Z,55.44
2019-02-09T20:15:54.125Z,55.11
2019-02-09T20:18:23.854Z,55.53
2019-02-09T20:20:53.368Z,54.95
2019-02-09T20:23:22.923Z,54.77
2019-02-09T20:25:52.499Z,54.91
2019-02-09T20:28:22.028Z,55.69
2019-02-09T20:30:51.549Z,55.34
2019-02-09T20:33:21.193Z,55.77
2019-02-09T20:35:50.812Z,55.11
2019-02-09T20:38:20.532Z,55.16
2019-02-09T20:41:02.542Z,55.52
2019-02-09T20:43:32.103Z,55.33
2019-02-09T20:46:01.619Z,55.45
2019-02-09T20:48:31.250Z,55.18
2019-02-09T20:51:00.872Z,54.74
2019-02-09T20:53:30.422Z,55.45
2019-02-09T20:56:00.005Z,55.13
2019-02-09T20:58:29.614Z,55.20
2019-02-09T21:00:59.221Z,56.38
2019-02-09T21:03:28.710Z,55.48
2019-02-09T21:05:58.323Z,55.41
2019-02-09T21:08:27.969Z,55.47
2019-02-09T21:10:57.633Z,55.39
2019-02-09T21:13:27.226Z,56.04
2019-02-09T21:15:56.867Z,56.11
2019-02-09T21:18:26.500Z,55.43
2019-02-09T21:20:56.103Z,55.70
2019-02-09T21:23:25.752Z,55.31
2019-02-09T21:25:55.454Z,55.38
2019-02-09T21:28:24.938Z,55.78
2019-02-09T21:30:54.617Z,55.71
2019-02-09T21:33:24.271Z,56.08
2019-02-09T21:35:53.931Z,56.31
2019-02-09T21:38:23.455Z,56.09
2019-02-09T21:40:53.004Z,55.96
2019-02-09T21:43:22.590Z,56.44
2019-02-09T21:45:52.102Z,56.81
2019-02-09T21:48:21.747Z,57.27
2019-02-09T21:50:51.307Z,57.21
2019-02-09T21:53:20.848Z,57.79
2019-02-09T21:55:50.445Z,58.40
2019-02-09T21:58:20.033Z,57.53
2019-02-09T22:00:49.646Z,57.30
2019-02-09T22:03:19.146Z,57.57
2019-02-09T22:05:51.981Z,57.11
2019-02-09T22:08:20.407Z,56.42
2019-02-09T22:10:50.000Z,57.18
2019-02-09T22:13:19.880Z,57.46
2019-02-09T22:15:49.388Z,58.18
2019-02-09T22:18:18.894Z,57.14
2019-02-09T22:20:52.863Z,56.69
2019-02-09T22:23:19.886Z,56.67
2019-02-09T22:25:49.397Z,57.64
2019-02-09T22:28:18.904Z,57.31
2019-02-09T22:30:48.534Z,57.05
2019-02-09T22:33:24.422Z,57.37
2019-02-09T22:35:49.407Z,57.47
2019-02-09T22:38:18.924Z,57.07
2019-02-09T22:40:48.462Z,56.99
2019-02-09T22:43:18.019Z,56.82
2019-02-09T22:45:47.599Z,56.98
2019-02-09T22:48:17.185Z,57.70
2019-02-09T22:50:47.376Z,57.18
2019-02-09T22:53:17.022Z,57.10
2019-02-09T22:55:46.616Z,56.73
2019-02-09T22:58:16.424Z,56.81
2019-02-09T23:01:05.498Z,56.53
2019-02-09T23:03:42.222Z,56.44
2019-02-09T23:06:40.362Z,56.33
2019-02-09T23:09:13.582Z,56.19
2019-02-09T23:11:43.190Z,56.05
2019-02-09T23:14:12.863Z,56.19
2019-02-09T23:16:42.411Z,56.29
2019-02-09T23:19:11.990Z,56.16
2019-02-09T23:21:41.579Z,55.91
2019-02-09T23:24:11.167Z,55.47
2019-02-09T23:26:40.686Z,55.13
2019-02-09T23:29:10.201Z,54.96
2019-02-09T23:31:39.751Z,54.77
2019-02-09T23:34:09.372Z,54.69
2019-02-09T23:36:38.989Z,54.51
2019-02-09T23:39:08.574Z,54.22
2019-02-09T23:41:38.128Z,54.25
2019-02-09T23:44:07.634Z,54.28
2019-02-09T23:46:37.232Z,54.19
2019-02-09T23:49:06.761Z,54.15
2019-02-09T23:51:36.331Z,53.91
2019-02-09T23:54:05.908Z,53.92
2019-02-09T23:56:35.486Z,53.87
2019-02-09T23:59:05.086Z,53.89
